sensor_id;sensor_type;location;lat;lon;timestamp;P1;durP1;ratioP1;P2;durP2;ratioP2
7383;SDS011;3733;47.994;8.820;2023-03-01T00:00:53;44.63;;;18.87;;
7383;SDS011;3733;47.994;8.820;2023-03-01T00:03:19;28.57;;;15.17;;
7383;SDS011;3733;47.994;8.820;2023-03-01T00:05:45;26.50;;;14.17;;
7383;SDS011;3733;47.994;8.820;2023-03-01T00:08:11;25.53;;;13.27;;
7383;SDS011;3733;47.994;8.820;2023-03-01T00:10:37;28.97;;;15.13;;
7383;SDS011;3733;47.994;8.820;2023-03-01T00:13:03;27.37;;;15.40;;
7383;SDS011;3733;47.994;8.820;2023-03-01T00:15:30;30.77;;;16.17;;
7383;SDS011;3733;47.994;8.820;2023-03-01T00:17:56;33.27;;;17.40;;
7383;SDS011;3733;47.994;8.820;2023-03-01T00:20:22;32.43;;;15.53;;
7383;SDS011;3733;47.994;8.820;2023-03-01T00:22:48;23.50;;;14.57;;
7383;SDS011;3733;47.994;8.820;2023-03-01T00:25:13;31.10;;;16.23;;
7383;SDS011;3733;47.994;8.820;2023-03-01T00:27:39;26.77;;;14.03;;
7383;SDS011;3733;47.994;8.820;2023-03-01T00:30:05;25.83;;;13.13;;
7383;SDS011;3733;47.994;8.820;2023-03-01T00:32:31;28.50;;;15.47;;
7383;SDS011;3733;47.994;8.820;2023-03-01T00:34:57;30.97;;;15.87;;
7383;SDS011;3733;47.994;8.820;2023-03-01T00:37:23;33.47;;;14.43;;
7383;SDS011;3733;47.994;8.820;2023-03-01T00:39:49;24.43;;;13.40;;
7383;SDS011;3733;47.994;8.820;2023-03-01T00:42:15;32.43;;;15.40;;
7383;SDS011;3733;47.994;8.820;2023-03-01T00:44:41;24.10;;;14.60;;
7383;SDS011;3733;47.994;8.820;2023-03-01T00:47:06;26.63;;;14.40;;
7383;SDS011;3733;47.994;8.820;2023-03-01T00:49:32;26.33;;;14.93;;
7383;SDS011;3733;47.994;8.820;2023-03-01T00:51:58;29.00;;;15.03;;
7383;SDS011;3733;47.994;8.820;2023-03-01T00:54:23;34.33;;;15.90;;
7383;SDS011;3733;47.994;8.820;2023-03-01T00:56:49;30.30;;;16.30;;
7383;SDS011;3733;47.994;8.820;2023-03-01T00:59:14;30.50;;;15.93;;
7383;SDS011;3733;47.994;8.820;2023-03-01T01:01:40;33.33;;;16.10;;
7383;SDS011;3733;47.994;8.820;2023-03-01T01:04:07;28.03;;;15.17;;
7383;SDS011;3733;47.994;8.820;2023-03-01T01:06:39;28.33;;;15.43;;
7383;SDS011;3733;47.994;8.820;2023-03-01T01:09:08;30.13;;;15.30;;
7383;SDS011;3733;47.994;8.820;2023-03-01T01:11:41;29.03;;;15.97;;
7383;SDS011;3733;47.994;8.820;2023-03-01T01:14:08;28.47;;;15.03;;
7383;SDS011;3733;47.994;8.820;2023-03-01T01:16:33;31.07;;;15.90;;
7383;SDS011;3733;47.994;8.820;2023-03-01T01:18:59;33.20;;;16.40;;
7383;SDS011;3733;47.994;8.820;2023-03-01T01:21:24;30.03;;;16.73;;
7383;SDS011;3733;47.994;8.820;2023-03-01T01:23:51;29.70;;;16.40;;
7383;SDS011;3733;47.994;8.820;2023-03-01T01:26:19;28.47;;;16.37;;
7383;SDS011;3733;47.994;8.820;2023-03-01T01:28:47;31.27;;;16.53;;
7383;SDS011;3733;47.994;8.820;2023-03-01T01:31:13;33.50;;;17.37;;
7383;SDS011;3733;47.994;8.820;2023-03-01T01:33:39;28.27;;;16.13;;
7383;SDS011;3733;47.994;8.820;2023-03-01T01:36:05;33.40;;;16.73;;
7383;SDS011;3733;47.994;8.820;2023-03-01T01:38:32;30.60;;;15.80;;
7383;SDS011;3733;47.994;8.820;2023-03-01T01:40:58;31.43;;;16.57;;
7383;SDS011;3733;47.994;8.820;2023-03-01T01:43:25;31.80;;;16.63;;
7383;SDS011;3733;47.994;8.820;2023-03-01T01:49:00;28.83;;;15.67;;
7383;SDS011;3733;47.994;8.820;2023-03-01T01:51:31;34.07;;;15.90;;
7383;SDS011;3733;47.994;8.820;2023-03-01T01:54:03;31.40;;;15.57;;
7383;SDS011;3733;47.994;8.820;2023-03-01T01:56:37;30.77;;;17.30;;
7383;SDS011;3733;47.994;8.820;2023-03-01T01:59:06;35.03;;;17.27;;
7383;SDS011;3733;47.994;8.820;2023-03-01T02:01:32;34.70;;;17.20;;
7383;SDS011;3733;47.994;8.820;2023-03-01T02:03:58;33.30;;;17.17;;
7383;SDS011;3733;47.994;8.820;2023-03-01T02:08:59;29.20;;;14.60;;
7383;SDS011;3733;47.994;8.820;2023-03-01T02:11:29;34.10;;;17.97;;
7383;SDS011;3733;47.994;8.820;2023-03-01T02:13:56;31.10;;;16.80;;
7383;SDS011;3733;47.994;8.820;2023-03-01T02:16:21;27.70;;;16.60;;
7383;SDS011;3733;47.994;8.820;2023-03-01T02:18:47;32.37;;;17.90;;
7383;SDS011;3733;47.994;8.820;2023-03-01T02:21:22;33.00;;;17.07;;
7383;SDS011;3733;47.994;8.820;2023-03-01T02:23:56;34.10;;;16.97;;
7383;SDS011;3733;47.994;8.820;2023-03-01T02:29:17;32.47;;;15.93;;
7383;SDS011;3733;47.994;8.820;2023-03-01T02:31:43;31.03;;;15.77;;
7383;SDS011;3733;47.994;8.820;2023-03-01T02:34:13;29.90;;;16.40;;
7383;SDS011;3733;47.994;8.820;2023-03-01T02:36:46;30.13;;;15.60;;
7383;SDS011;3733;47.994;8.820;2023-03-01T02:39:17;33.77;;;16.50;;
7383;SDS011;3733;47.994;8.820;2023-03-01T02:41:47;28.53;;;15.80;;
7383;SDS011;3733;47.994;8.820;2023-03-01T02:44:15;29.73;;;15.73;;
7383;SDS011;3733;47.994;8.820;2023-03-01T02:46:45;29.17;;;16.27;;
7383;SDS011;3733;47.994;8.820;2023-03-01T02:49:21;34.13;;;16.90;;
7383;SDS011;3733;47.994;8.820;2023-03-01T02:55:11;30.77;;;15.60;;
7383;SDS011;3733;47.994;8.820;2023-03-01T02:57:40;29.17;;;16.33;;
7383;SDS011;3733;47.994;8.820;2023-03-01T03:00:11;33.53;;;16.50;;
7383;SDS011;3733;47.994;8.820;2023-03-01T03:02:44;33.60;;;17.00;;
7383;SDS011;3733;47.994;8.820;2023-03-01T03:05:15;33.47;;;17.40;;
7383;SDS011;3733;47.994;8.820;2023-03-01T03:07:46;32.37;;;16.90;;
7383;SDS011;3733;47.994;8.820;2023-03-01T03:10:21;35.90;;;16.77;;
7383;SDS011;3733;47.994;8.820;2023-03-01T03:12:50;31.03;;;16.00;;
7383;SDS011;3733;47.994;8.820;2023-03-01T03:15:17;33.80;;;16.87;;
7383;SDS011;3733;47.994;8.820;2023-03-01T03:17:45;29.87;;;16.53;;
7383;SDS011;3733;47.994;8.820;2023-03-01T03:20:11;32.97;;;17.10;;
7383;SDS011;3733;47.994;8.820;2023-03-01T03:22:43;33.17;;;15.97;;
7383;SDS011;3733;47.994;8.820;2023-03-01T03:25:10;30.93;;;16.63;;
7383;SDS011;3733;47.994;8.820;2023-03-01T03:27:39;31.93;;;17.50;;
7383;SDS011;3733;47.994;8.820;2023-03-01T03:30:08;33.90;;;17.73;;
7383;SDS011;3733;47.994;8.820;2023-03-01T03:32:38;35.50;;;17.20;;
7383;SDS011;3733;47.994;8.820;2023-03-01T03:35:04;35.43;;;17.67;;
7383;SDS011;3733;47.994;8.820;2023-03-01T03:37:38;33.27;;;17.93;;
7383;SDS011;3733;47.994;8.820;2023-03-01T03:40:23;36.00;;;17.93;;
7383;SDS011;3733;47.994;8.820;2023-03-01T03:42:49;36.00;;;17.30;;
7383;SDS011;3733;47.994;8.820;2023-03-01T03:45:15;33.27;;;18.60;;
7383;SDS011;3733;47.994;8.820;2023-03-01T03:47:42;31.47;;;17.53;;
7383;SDS011;3733;47.994;8.820;2023-03-01T03:50:08;37.20;;;18.97;;
7383;SDS011;3733;47.994;8.820;2023-03-01T03:52:35;38.87;;;18.10;;
7383;SDS011;3733;47.994;8.820;2023-03-01T03:55:00;34.60;;;18.73;;
7383;SDS011;3733;47.994;8.820;2023-03-01T03:57:26;36.50;;;17.97;;
7383;SDS011;3733;47.994;8.820;2023-03-01T03:59:51;41.90;;;18.87;;
7383;SDS011;3733;47.994;8.820;2023-03-01T04:02:17;38.30;;;17.50;;
7383;SDS011;3733;47.994;8.820;2023-03-01T04:04:47;39.83;;;18.33;;
7383;SDS011;3733;47.994;8.820;2023-03-01T04:07:15;34.93;;;17.27;;
7383;SDS011;3733;47.994;8.820;2023-03-01T04:09:41;37.00;;;17.70;;
7383;SDS011;3733;47.994;8.820;2023-03-01T04:12:07;35.00;;;18.13;;
7383;SDS011;3733;47.994;8.820;2023-03-01T04:14:33;37.03;;;19.07;;
7383;SDS011;3733;47.994;8.820;2023-03-01T04:16:59;34.97;;;18.13;;
7383;SDS011;3733;47.994;8.820;2023-03-01T04:19:24;37.43;;;19.90;;
7383;SDS011;3733;47.994;8.820;2023-03-01T04:21:51;39.63;;;18.67;;
7383;SDS011;3733;47.994;8.820;2023-03-01T04:24:17;34.90;;;17.90;;
7383;SDS011;3733;47.994;8.820;2023-03-01T04:26:43;37.97;;;18.37;;
7383;SDS011;3733;47.994;8.820;2023-03-01T04:29:09;34.87;;;18.57;;
7383;SDS011;3733;47.994;8.820;2023-03-01T04:31:34;39.00;;;18.73;;
7383;SDS011;3733;47.994;8.820;2023-03-01T04:34:00;40.50;;;19.50;;
7383;SDS011;3733;47.994;8.820;2023-03-01T04:36:26;30.00;;;17.20;;
7383;SDS011;3733;47.994;8.820;2023-03-01T04:38:53;39.97;;;18.40;;
7383;SDS011;3733;47.994;8.820;2023-03-01T04:41:20;37.67;;;17.57;;
7383;SDS011;3733;47.994;8.820;2023-03-01T04:43:47;35.27;;;18.60;;
7383;SDS011;3733;47.994;8.820;2023-03-01T04:46:14;41.30;;;19.90;;
7383;SDS011;3733;47.994;8.820;2023-03-01T04:48:43;42.70;;;19.23;;
7383;SDS011;3733;47.994;8.820;2023-03-01T04:51:10;37.33;;;19.87;;
7383;SDS011;3733;47.994;8.820;2023-03-01T04:53:38;33.83;;;18.37;;
7383;SDS011;3733;47.994;8.820;2023-03-01T04:56:04;38.00;;;18.70;;
7383;SDS011;3733;47.994;8.820;2023-03-01T04:58:31;35.13;;;18.20;;
7383;SDS011;3733;47.994;8.820;2023-03-01T05:00:57;37.90;;;17.60;;
7383;SDS011;3733;47.994;8.820;2023-03-01T05:03:22;32.60;;;17.47;;
7383;SDS011;3733;47.994;8.820;2023-03-01T05:05:49;41.30;;;19.77;;
7383;SDS011;3733;47.994;8.820;2023-03-01T05:08:16;32.67;;;18.40;;
7383;SDS011;3733;47.994;8.820;2023-03-01T05:10:50;39.80;;;20.00;;
7383;SDS011;3733;47.994;8.820;2023-03-01T05:13:17;37.93;;;18.03;;
7383;SDS011;3733;47.994;8.820;2023-03-01T05:15:54;35.13;;;17.73;;
7383;SDS011;3733;47.994;8.820;2023-03-01T05:18:22;34.43;;;18.47;;
7383;SDS011;3733;47.994;8.820;2023-03-01T05:20:51;31.77;;;17.70;;
7383;SDS011;3733;47.994;8.820;2023-03-01T05:23:21;41.50;;;19.53;;
7383;SDS011;3733;47.994;8.820;2023-03-01T05:25:47;37.80;;;19.20;;
7383;SDS011;3733;47.994;8.820;2023-03-01T05:28:14;39.60;;;19.83;;
7383;SDS011;3733;47.994;8.820;2023-03-01T05:30:40;34.70;;;18.03;;
7383;SDS011;3733;47.994;8.820;2023-03-01T05:33:06;34.37;;;17.70;;
7383;SDS011;3733;47.994;8.820;2023-03-01T05:35:38;37.90;;;18.93;;
7383;SDS011;3733;47.994;8.820;2023-03-01T05:38:04;33.67;;;17.87;;
7383;SDS011;3733;47.994;8.820;2023-03-01T05:40:30;36.17;;;18.87;;
7383;SDS011;3733;47.994;8.820;2023-03-01T05:42:58;42.40;;;19.77;;
7383;SDS011;3733;47.994;8.820;2023-03-01T05:45:24;32.63;;;18.40;;
7383;SDS011;3733;47.994;8.820;2023-03-01T05:47:51;36.20;;;17.33;;
7383;SDS011;3733;47.994;8.820;2023-03-01T05:50:21;32.57;;;18.00;;
7383;SDS011;3733;47.994;8.820;2023-03-01T05:53:35;35.30;;;17.00;;
7383;SDS011;3733;47.994;8.820;2023-03-01T05:55:43;38.77;;;18.43;;
7383;SDS011;3733;47.994;8.820;2023-03-01T05:58:12;37.27;;;19.37;;
7383;SDS011;3733;47.994;8.820;2023-03-01T06:00:39;35.33;;;16.53;;
7383;SDS011;3733;47.994;8.820;2023-03-01T06:03:05;39.37;;;18.67;;
7383;SDS011;3733;47.994;8.820;2023-03-01T06:05:31;42.43;;;17.47;;
7383;SDS011;3733;47.994;8.820;2023-03-01T06:08:00;32.07;;;17.90;;
7383;SDS011;3733;47.994;8.820;2023-03-01T06:10:26;37.97;;;18.50;;
7383;SDS011;3733;47.994;8.820;2023-03-01T06:12:52;37.77;;;19.63;;
7383;SDS011;3733;47.994;8.820;2023-03-01T06:15:19;36.60;;;18.80;;
7383;SDS011;3733;47.994;8.820;2023-03-01T06:17:46;40.13;;;18.70;;
7383;SDS011;3733;47.994;8.820;2023-03-01T06:20:13;39.27;;;18.93;;
7383;SDS011;3733;47.994;8.820;2023-03-01T06:22:41;35.73;;;18.27;;
7383;SDS011;3733;47.994;8.820;2023-03-01T06:25:08;35.33;;;19.20;;
7383;SDS011;3733;47.994;8.820;2023-03-01T06:27:34;38.80;;;18.93;;
7383;SDS011;3733;47.994;8.820;2023-03-01T06:30:01;38.27;;;18.47;;
7383;SDS011;3733;47.994;8.820;2023-03-01T06:32:27;39.03;;;18.70;;
7383;SDS011;3733;47.994;8.820;2023-03-01T06:34:52;34.57;;;17.43;;
7383;SDS011;3733;47.994;8.820;2023-03-01T06:37:18;39.20;;;18.50;;
7383;SDS011;3733;47.994;8.820;2023-03-01T06:39:44;33.30;;;17.63;;
7383;SDS011;3733;47.994;8.820;2023-03-01T06:42:09;42.90;;;17.80;;
7383;SDS011;3733;47.994;8.820;2023-03-01T06:44:36;35.53;;;17.97;;
7383;SDS011;3733;47.994;8.820;2023-03-01T06:47:02;37.80;;;17.80;;
7383;SDS011;3733;47.994;8.820;2023-03-01T06:49:28;36.93;;;18.23;;
7383;SDS011;3733;47.994;8.820;2023-03-01T06:51:54;42.00;;;17.90;;
7383;SDS011;3733;47.994;8.820;2023-03-01T06:54:19;39.70;;;16.93;;
7383;SDS011;3733;47.994;8.820;2023-03-01T06:56:47;39.97;;;17.70;;
7383;SDS011;3733;47.994;8.820;2023-03-01T06:59:14;43.30;;;19.30;;
7383;SDS011;3733;47.994;8.820;2023-03-01T07:01:40;35.07;;;17.40;;
7383;SDS011;3733;47.994;8.820;2023-03-01T07:04:05;37.27;;;17.77;;
7383;SDS011;3733;47.994;8.820;2023-03-01T07:06:31;33.97;;;17.40;;
7383;SDS011;3733;47.994;8.820;2023-03-01T07:08:57;32.80;;;16.70;;
7383;SDS011;3733;47.994;8.820;2023-03-01T07:11:22;33.50;;;17.23;;
7383;SDS011;3733;47.994;8.820;2023-03-01T07:13:48;37.10;;;18.90;;
7383;SDS011;3733;47.994;8.820;2023-03-01T07:16:14;34.70;;;18.37;;
7383;SDS011;3733;47.994;8.820;2023-03-01T07:18:40;42.13;;;18.67;;
7383;SDS011;3733;47.994;8.820;2023-03-01T07:21:09;34.83;;;18.43;;
7383;SDS011;3733;47.994;8.820;2023-03-01T07:23:38;46.30;;;18.83;;
7383;SDS011;3733;47.994;8.820;2023-03-01T07:26:04;31.83;;;17.07;;
7383;SDS011;3733;47.994;8.820;2023-03-01T07:28:29;39.47;;;18.93;;
7383;SDS011;3733;47.994;8.820;2023-03-01T07:31:00;33.37;;;17.10;;
7383;SDS011;3733;47.994;8.820;2023-03-01T07:33:27;36.60;;;17.67;;
7383;SDS011;3733;47.994;8.820;2023-03-01T07:35:59;30.43;;;17.07;;
7383;SDS011;3733;47.994;8.820;2023-03-01T07:38:26;38.17;;;17.33;;
7383;SDS011;3733;47.994;8.820;2023-03-01T07:40:52;35.87;;;16.93;;
7383;SDS011;3733;47.994;8.820;2023-03-01T07:43:18;37.60;;;16.90;;
7383;SDS011;3733;47.994;8.820;2023-03-01T07:45:44;36.50;;;18.13;;
7383;SDS011;3733;47.994;8.820;2023-03-01T07:48:09;34.37;;;18.23;;
7383;SDS011;3733;47.994;8.820;2023-03-01T07:50:35;36.53;;;18.20;;
7383;SDS011;3733;47.994;8.820;2023-03-01T07:53:01;33.40;;;17.93;;
7383;SDS011;3733;47.994;8.820;2023-03-01T07:55:27;34.37;;;17.77;;
7383;SDS011;3733;47.994;8.820;2023-03-01T07:57:53;31.27;;;16.20;;
7383;SDS011;3733;47.994;8.820;2023-03-01T08:00:18;34.50;;;16.07;;
7383;SDS011;3733;47.994;8.820;2023-03-01T08:02:44;34.73;;;17.57;;
7383;SDS011;3733;47.994;8.820;2023-03-01T08:05:10;30.97;;;16.53;;
7383;SDS011;3733;47.994;8.820;2023-03-01T08:07:35;33.03;;;16.80;;
7383;SDS011;3733;47.994;8.820;2023-03-01T08:10:01;34.80;;;17.80;;
7383;SDS011;3733;47.994;8.820;2023-03-01T08:12:27;34.80;;;17.10;;
7383;SDS011;3733;47.994;8.820;2023-03-01T08:14:53;34.67;;;17.47;;
7383;SDS011;3733;47.994;8.820;2023-03-01T08:17:19;33.10;;;17.17;;
7383;SDS011;3733;47.994;8.820;2023-03-01T08:19:45;33.10;;;16.93;;
7383;SDS011;3733;47.994;8.820;2023-03-01T08:22:11;34.70;;;17.80;;
7383;SDS011;3733;47.994;8.820;2023-03-01T08:24:36;31.93;;;16.53;;
7383;SDS011;3733;47.994;8.820;2023-03-01T08:27:02;31.70;;;16.80;;
7383;SDS011;3733;47.994;8.820;2023-03-01T08:29:30;35.17;;;18.03;;
7383;SDS011;3733;47.994;8.820;2023-03-01T08:31:56;39.77;;;18.40;;
7383;SDS011;3733;47.994;8.820;2023-03-01T08:34:21;34.13;;;16.80;;
7383;SDS011;3733;47.994;8.820;2023-03-01T08:36:47;29.27;;;16.17;;
7383;SDS011;3733;47.994;8.820;2023-03-01T08:39:14;34.80;;;17.37;;
7383;SDS011;3733;47.994;8.820;2023-03-01T08:41:41;35.80;;;17.23;;
7383;SDS011;3733;47.994;8.820;2023-03-01T08:44:08;29.27;;;16.00;;
7383;SDS011;3733;47.994;8.820;2023-03-01T08:46:36;35.33;;;17.20;;
7383;SDS011;3733;47.994;8.820;2023-03-01T08:49:04;30.83;;;17.10;;
7383;SDS011;3733;47.994;8.820;2023-03-01T08:51:30;28.03;;;15.40;;
7383;SDS011;3733;47.994;8.820;2023-03-01T08:54:01;31.70;;;16.63;;
7383;SDS011;3733;47.994;8.820;2023-03-01T08:56:31;37.00;;;17.50;;
7383;SDS011;3733;47.994;8.820;2023-03-01T08:58:57;33.47;;;17.30;;
7383;SDS011;3733;47.994;8.820;2023-03-01T09:01:23;35.97;;;17.40;;
7383;SDS011;3733;47.994;8.820;2023-03-01T09:03:49;31.43;;;15.80;;
7383;SDS011;3733;47.994;8.820;2023-03-01T09:06:14;34.50;;;15.90;;
7383;SDS011;3733;47.994;8.820;2023-03-01T09:08:45;32.13;;;16.80;;
7383;SDS011;3733;47.994;8.820;2023-03-01T09:11:13;29.53;;;15.27;;
7383;SDS011;3733;47.994;8.820;2023-03-01T09:13:41;34.60;;;15.40;;
7383;SDS011;3733;47.994;8.820;2023-03-01T09:16:08;34.10;;;16.60;;
7383;SDS011;3733;47.994;8.820;2023-03-01T09:18:35;31.77;;;15.63;;
7383;SDS011;3733;47.994;8.820;2023-03-01T09:21:04;34.80;;;16.37;;
7383;SDS011;3733;47.994;8.820;2023-03-01T09:23:36;34.40;;;16.20;;
7383;SDS011;3733;47.994;8.820;2023-03-01T09:26:04;34.80;;;16.90;;
7383;SDS011;3733;47.994;8.820;2023-03-01T09:28:34;30.37;;;15.40;;
7383;SDS011;3733;47.994;8.820;2023-03-01T09:31:01;30.40;;;15.30;;
7383;SDS011;3733;47.994;8.820;2023-03-01T09:33:30;36.60;;;16.60;;
7383;SDS011;3733;47.994;8.820;2023-03-01T09:35:58;30.77;;;15.83;;
7383;SDS011;3733;47.994;8.820;2023-03-01T09:38:28;34.17;;;17.20;;
7383;SDS011;3733;47.994;8.820;2023-03-01T09:40:54;30.30;;;16.77;;
7383;SDS011;3733;47.994;8.820;2023-03-01T09:45:59;29.17;;;15.53;;
7383;SDS011;3733;47.994;8.820;2023-03-01T09:48:30;34.53;;;16.70;;
7383;SDS011;3733;47.994;8.820;2023-03-01T09:51:07;39.77;;;17.47;;
7383;SDS011;3733;47.994;8.820;2023-03-01T09:53:39;34.47;;;17.00;;
7383;SDS011;3733;47.994;8.820;2023-03-01T09:56:05;49.00;;;16.97;;
7383;SDS011;3733;47.994;8.820;2023-03-01T09:59:09;33.93;;;15.40;;
7383;SDS011;3733;47.994;8.820;2023-03-01T10:09:57;33.83;;;16.47;;
7383;SDS011;3733;47.994;8.820;2023-03-01T10:12:26;29.43;;;15.53;;
7383;SDS011;3733;47.994;8.820;2023-03-01T10:15:00;36.33;;;16.83;;
7383;SDS011;3733;47.994;8.820;2023-03-01T10:20:14;32.30;;;16.87;;
7383;SDS011;3733;47.994;8.820;2023-03-01T10:22:40;27.70;;;15.00;;
7383;SDS011;3733;47.994;8.820;2023-03-01T10:25:06;31.30;;;16.40;;
7383;SDS011;3733;47.994;8.820;2023-03-01T10:30:17;34.33;;;17.20;;
7383;SDS011;3733;47.994;8.820;2023-03-01T10:32:47;29.60;;;15.07;;
7383;SDS011;3733;47.994;8.820;2023-03-01T10:35:16;37.17;;;17.30;;
7383;SDS011;3733;47.994;8.820;2023-03-01T10:37:59;33.53;;;16.83;;
7383;SDS011;3733;47.994;8.820;2023-03-01T10:40:32;32.07;;;16.90;;
7383;SDS011;3733;47.994;8.820;2023-03-01T10:43:00;32.20;;;16.00;;
7383;SDS011;3733;47.994;8.820;2023-03-01T10:48:11;36.00;;;17.53;;
7383;SDS011;3733;47.994;8.820;2023-03-01T10:50:39;34.03;;;17.00;;
7383;SDS011;3733;47.994;8.820;2023-03-01T10:53:22;31.23;;;16.13;;
7383;SDS011;3733;47.994;8.820;2023-03-01T10:56:07;32.07;;;16.80;;
7383;SDS011;3733;47.994;8.820;2023-03-01T10:58:36;30.67;;;15.17;;
7383;SDS011;3733;47.994;8.820;2023-03-01T11:03:29;29.23;;;15.83;;
7383;SDS011;3733;47.994;8.820;2023-03-01T11:08:45;29.90;;;15.27;;
7383;SDS011;3733;47.994;8.820;2023-03-01T11:19:40;34.67;;;15.93;;
7383;SDS011;3733;47.994;8.820;2023-03-01T11:22:10;36.57;;;16.40;;
7383;SDS011;3733;47.994;8.820;2023-03-01T11:24:42;31.30;;;16.10;;
7383;SDS011;3733;47.994;8.820;2023-03-01T11:30:00;31.07;;;15.97;;
7383;SDS011;3733;47.994;8.820;2023-03-01T11:35:34;25.93;;;14.93;;
7383;SDS011;3733;47.994;8.820;2023-03-01T11:41:13;34.40;;;16.97;;
7383;SDS011;3733;47.994;8.820;2023-03-01T11:49:05;36.53;;;17.37;;
7383;SDS011;3733;47.994;8.820;2023-03-01T11:51:55;41.23;;;19.23;;
7383;SDS011;3733;47.994;8.820;2023-03-01T11:57:26;34.20;;;17.27;;
7383;SDS011;3733;47.994;8.820;2023-03-01T12:03:06;31.03;;;16.77;;
7383;SDS011;3733;47.994;8.820;2023-03-01T12:08:35;32.90;;;17.63;;
7383;SDS011;3733;47.994;8.820;2023-03-01T12:17:15;35.17;;;17.93;;
7383;SDS011;3733;47.994;8.820;2023-03-01T12:19:49;33.73;;;18.33;;
7383;SDS011;3733;47.994;8.820;2023-03-01T12:36:37;36.93;;;18.30;;
7383;SDS011;3733;47.994;8.820;2023-03-01T12:50:03;32.77;;;17.43;;
7383;SDS011;3733;47.994;8.820;2023-03-01T12:52:40;34.80;;;19.47;;
7383;SDS011;3733;47.994;8.820;2023-03-01T12:55:19;39.10;;;18.43;;
7383;SDS011;3733;47.994;8.820;2023-03-01T13:09:25;30.90;;;16.77;;
7383;SDS011;3733;47.994;8.820;2023-03-01T13:12:00;31.10;;;17.50;;
7383;SDS011;3733;47.994;8.820;2023-03-01T13:16:51;33.13;;;18.70;;
7383;SDS011;3733;47.994;8.820;2023-03-01T13:19:19;32.03;;;17.73;;
7383;SDS011;3733;47.994;8.820;2023-03-01T13:21:48;31.33;;;17.03;;
7383;SDS011;3733;47.994;8.820;2023-03-01T13:24:35;36.67;;;17.53;;
7383;SDS011;3733;47.994;8.820;2023-03-01T13:37:43;36.00;;;19.07;;
7383;SDS011;3733;47.994;8.820;2023-03-01T13:42:56;27.50;;;16.73;;
7383;SDS011;3733;47.994;8.820;2023-03-01T13:48:24;33.07;;;18.10;;
7383;SDS011;3733;47.994;8.820;2023-03-01T13:50:53;31.87;;;17.70;;
7383;SDS011;3733;47.994;8.820;2023-03-01T13:53:23;29.43;;;17.30;;
7383;SDS011;3733;47.994;8.820;2023-03-01T13:55:51;35.23;;;18.03;;
7383;SDS011;3733;47.994;8.820;2023-03-01T13:58:24;30.47;;;16.60;;
7383;SDS011;3733;47.994;8.820;2023-03-01T14:01:04;35.07;;;17.70;;
7383;SDS011;3733;47.994;8.820;2023-03-01T14:03:32;32.47;;;17.30;;
7383;SDS011;3733;47.994;8.820;2023-03-01T14:06:00;31.97;;;17.70;;
7383;SDS011;3733;47.994;8.820;2023-03-01T14:08:34;31.87;;;16.67;;
7383;SDS011;3733;47.994;8.820;2023-03-01T14:17:27;28.43;;;15.67;;
7383;SDS011;3733;47.994;8.820;2023-03-01T14:19:56;33.90;;;16.97;;
7383;SDS011;3733;47.994;8.820;2023-03-01T14:27:17;35.37;;;17.87;;
7383;SDS011;3733;47.994;8.820;2023-03-01T14:29:43;34.33;;;18.93;;
7383;SDS011;3733;47.994;8.820;2023-03-01T14:32:19;36.70;;;19.10;;
7383;SDS011;3733;47.994;8.820;2023-03-01T14:34:47;34.23;;;17.80;;
7383;SDS011;3733;47.994;8.820;2023-03-01T14:37:28;30.33;;;16.83;;
7383;SDS011;3733;47.994;8.820;2023-03-01T14:39:55;35.43;;;18.70;;
7383;SDS011;3733;47.994;8.820;2023-03-01T14:42:22;29.90;;;16.80;;
7383;SDS011;3733;47.994;8.820;2023-03-01T14:44:52;30.20;;;17.80;;
7383;SDS011;3733;47.994;8.820;2023-03-01T14:49:56;39.87;;;18.23;;
7383;SDS011;3733;47.994;8.820;2023-03-01T14:52:25;31.40;;;17.23;;
7383;SDS011;3733;47.994;8.820;2023-03-01T14:54:59;35.67;;;17.53;;
7383;SDS011;3733;47.994;8.820;2023-03-01T14:57:28;32.07;;;17.90;;
7383;SDS011;3733;47.994;8.820;2023-03-01T14:59:55;33.13;;;17.33;;
7383;SDS011;3733;47.994;8.820;2023-03-01T15:02:25;35.37;;;18.90;;
7383;SDS011;3733;47.994;8.820;2023-03-01T15:04:54;33.93;;;19.07;;
7383;SDS011;3733;47.994;8.820;2023-03-01T15:07:21;29.10;;;17.80;;
7383;SDS011;3733;47.994;8.820;2023-03-01T15:09:51;29.60;;;17.53;;
7383;SDS011;3733;47.994;8.820;2023-03-01T15:12:25;31.60;;;17.47;;
7383;SDS011;3733;47.994;8.820;2023-03-01T15:14:54;34.43;;;18.53;;
7383;SDS011;3733;47.994;8.820;2023-03-01T15:17:31;32.90;;;18.40;;
7383;SDS011;3733;47.994;8.820;2023-03-01T15:19:57;31.83;;;19.47;;
7383;SDS011;3733;47.994;8.820;2023-03-01T15:22:24;34.07;;;19.50;;
7383;SDS011;3733;47.994;8.820;2023-03-01T15:24:51;43.77;;;19.57;;
7383;SDS011;3733;47.994;8.820;2023-03-01T15:27:22;34.87;;;19.07;;
7383;SDS011;3733;47.994;8.820;2023-03-01T15:29:52;37.10;;;18.43;;
7383;SDS011;3733;47.994;8.820;2023-03-01T15:34:56;35.40;;;19.20;;
7383;SDS011;3733;47.994;8.820;2023-03-01T15:42:58;29.60;;;18.00;;
7383;SDS011;3733;47.994;8.820;2023-03-01T15:45:25;33.77;;;20.07;;
7383;SDS011;3733;47.994;8.820;2023-03-01T15:50:27;33.27;;;20.67;;
7383;SDS011;3733;47.994;8.820;2023-03-01T15:52:54;29.67;;;19.73;;
7383;SDS011;3733;47.994;8.820;2023-03-01T15:57:48;34.77;;;19.57;;
7383;SDS011;3733;47.994;8.820;2023-03-01T16:00:15;33.57;;;20.53;;
7383;SDS011;3733;47.994;8.820;2023-03-01T16:02:42;30.67;;;19.43;;
7383;SDS011;3733;47.994;8.820;2023-03-01T16:07:48;36.37;;;19.37;;
7383;SDS011;3733;47.994;8.820;2023-03-01T16:10:14;46.93;;;20.30;;
7383;SDS011;3733;47.994;8.820;2023-03-01T16:12:40;37.67;;;20.00;;
7383;SDS011;3733;47.994;8.820;2023-03-01T16:15:19;39.67;;;19.63;;
7383;SDS011;3733;47.994;8.820;2023-03-01T16:17:50;36.37;;;20.60;;
7383;SDS011;3733;47.994;8.820;2023-03-01T16:20:17;43.40;;;21.50;;
7383;SDS011;3733;47.994;8.820;2023-03-01T16:22:43;34.40;;;19.90;;
7383;SDS011;3733;47.994;8.820;2023-03-01T16:25:13;36.03;;;20.40;;
7383;SDS011;3733;47.994;8.820;2023-03-01T16:27:43;35.57;;;19.90;;
7383;SDS011;3733;47.994;8.820;2023-03-01T16:30:18;38.90;;;20.57;;
7383;SDS011;3733;47.994;8.820;2023-03-01T16:32:45;40.50;;;20.87;;
7383;SDS011;3733;47.994;8.820;2023-03-01T16:35:12;38.90;;;21.13;;
7383;SDS011;3733;47.994;8.820;2023-03-01T16:37:40;44.43;;;21.40;;
7383;SDS011;3733;47.994;8.820;2023-03-01T16:40:07;32.90;;;19.70;;
7383;SDS011;3733;47.994;8.820;2023-03-01T16:42:48;39.07;;;20.20;;
7383;SDS011;3733;47.994;8.820;2023-03-01T16:45:14;42.83;;;22.37;;
7383;SDS011;3733;47.994;8.820;2023-03-01T16:47:40;39.23;;;20.30;;
7383;SDS011;3733;47.994;8.820;2023-03-01T16:50:06;36.97;;;20.27;;
7383;SDS011;3733;47.994;8.820;2023-03-01T16:52:32;41.67;;;20.43;;
7383;SDS011;3733;47.994;8.820;2023-03-01T16:54:58;38.47;;;19.83;;
7383;SDS011;3733;47.994;8.820;2023-03-01T16:57:24;36.10;;;20.13;;
7383;SDS011;3733;47.994;8.820;2023-03-01T16:59:52;37.17;;;20.20;;
7383;SDS011;3733;47.994;8.820;2023-03-01T17:02:19;32.57;;;19.30;;
7383;SDS011;3733;47.994;8.820;2023-03-01T17:04:45;32.00;;;19.57;;
7383;SDS011;3733;47.994;8.820;2023-03-01T17:07:16;41.33;;;22.97;;
7383;SDS011;3733;47.994;8.820;2023-03-01T17:09:42;48.13;;;23.70;;
7383;SDS011;3733;47.994;8.820;2023-03-01T17:12:07;55.40;;;29.53;;
7383;SDS011;3733;47.994;8.820;2023-03-01T17:14:33;51.10;;;28.10;;
7383;SDS011;3733;47.994;8.820;2023-03-01T17:16:59;72.57;;;28.90;;
7383;SDS011;3733;47.994;8.820;2023-03-01T17:19:27;49.73;;;26.40;;
7383;SDS011;3733;47.994;8.820;2023-03-01T17:21:53;59.77;;;30.27;;
7383;SDS011;3733;47.994;8.820;2023-03-01T17:24:19;58.53;;;30.90;;
7383;SDS011;3733;47.994;8.820;2023-03-01T17:26:44;67.47;;;32.80;;
7383;SDS011;3733;47.994;8.820;2023-03-01T17:29:10;79.90;;;35.80;;
7383;SDS011;3733;47.994;8.820;2023-03-01T17:31:37;85.33;;;39.17;;
7383;SDS011;3733;47.994;8.820;2023-03-01T17:34:02;77.97;;;37.80;;